createdAt,value
2023-01-29T00:00:21.328Z,87.68
2023-01-29T00:01:21.303Z,87.78
2023-01-29T00:02:21.379Z,87.68
2023-01-29T00:03:21.363Z,87.68
2023-01-29T00:04:21.288Z,87.68
2023-01-29T00:05:28.011Z,87.78
2023-01-29T00:06:21.259Z,87.78
2023-01-29T00:07:21.237Z,87.78
2023-01-29T00:08:21.233Z,87.78
2023-01-29T00:09:21.221Z,87.78
2023-01-29T00:10:21.245Z,87.88
2023-01-29T00:11:21.194Z,87.85
2023-01-29T00:12:21.218Z,87.85
2023-01-29T00:13:21.170Z,87.85
2023-01-29T00:14:21.169Z,87.85
2023-01-29T00:15:21.157Z,87.85
2023-01-29T00:16:21.141Z,87.74
2023-01-29T00:17:21.178Z,87.74
2023-01-29T00:18:21.125Z,87.74
2023-01-29T00:19:21.115Z,87.74
2023-01-29T00:20:21.100Z,87.74
2023-01-29T00:21:21.088Z,87.78
2023-01-29T00:22:21.070Z,87.78
2023-01-29T00:23:21.087Z,87.78
2023-01-29T00:24:21.065Z,87.68
2023-01-29T00:25:21.081Z,87.57
2023-01-29T00:26:21.022Z,87.57
2023-01-29T00:27:21.013Z,87.57
2023-01-29T00:28:21.022Z,87.61
2023-01-29T00:29:21.012Z,87.61
2023-01-29T00:30:20.985Z,87.61
2023-01-29T00:31:21.132Z,87.61
2023-01-29T00:32:21.114Z,87.71
2023-01-29T00:33:20.947Z,87.71
2023-01-29T00:34:20.949Z,87.71
2023-01-29T00:35:20.929Z,87.82
2023-01-29T00:36:20.921Z,87.82
2023-01-29T00:37:20.894Z,87.93
2023-01-29T00:38:20.898Z,87.93
2023-01-29T00:39:20.892Z,88.03
2023-01-29T00:40:20.879Z,88.03
2023-01-29T00:41:20.860Z,88.03
2023-01-29T00:42:20.847Z,88.13
2023-01-29T00:43:20.835Z,88.03
2023-01-29T00:44:20.823Z,88.07
2023-01-29T00:45:20.812Z,88.18
2023-01-29T00:46:20.829Z,88.18
2023-01-29T00:47:20.791Z,88.28
2023-01-29T00:48:20.795Z,88.28
2023-01-29T00:49:20.786Z,88.35
2023-01-29T00:50:20.753Z,88.35
2023-01-29T00:51:20.745Z,88.45
2023-01-29T00:52:20.726Z,88.35
2023-01-29T00:53:20.729Z,88.35
2023-01-29T00:54:20.709Z,88.35
2023-01-29T00:55:20.692Z,88.35
2023-01-29T00:56:20.685Z,88.35
2023-01-29T00:57:20.676Z,88.45
2023-01-29T00:58:20.668Z,88.35
2023-01-29T00:59:20.656Z,88.45
2023-01-29T01:00:20.645Z,88.45
2023-01-29T01:01:20.629Z,88.35
2023-01-29T01:02:20.751Z,88.45
2023-01-29T01:03:20.604Z,88.45
2023-01-29T01:04:20.610Z,88.56
2023-01-29T01:05:20.587Z,88.56
2023-01-29T01:06:20.574Z,88.45
2023-01-29T01:07:20.557Z,88.45
2023-01-29T01:08:20.550Z,88.45
2023-01-29T01:09:20.533Z,88.45
2023-01-29T01:10:20.546Z,88.45
2023-01-29T01:11:20.508Z,88.35
2023-01-29T01:12:20.515Z,88.35
2023-01-29T01:13:20.490Z,88.24
2023-01-29T01:14:20.478Z,88.24
2023-01-29T01:15:20.464Z,88.28
2023-01-29T01:16:20.507Z,88.28
2023-01-29T01:17:20.441Z,88.28
2023-01-29T01:18:20.429Z,88.28
2023-01-29T01:19:20.429Z,88.28
2023-01-29T01:20:20.413Z,88.28
2023-01-29T01:21:20.413Z,88.39
2023-01-29T01:22:20.404Z,88.39
2023-01-29T01:23:20.379Z,88.49
2023-01-29T01:24:20.490Z,88.49
2023-01-29T01:25:20.362Z,88.53
2023-01-29T01:26:20.373Z,88.64
2023-01-29T01:27:20.342Z,88.64
2023-01-29T01:28:20.311Z,88.75
2023-01-29T01:29:20.330Z,88.70
2023-01-29T01:30:20.298Z,88.81
2023-01-29T01:31:20.430Z,88.92
2023-01-29T01:32:20.274Z,88.92
2023-01-29T01:33:20.288Z,89.02
2023-01-29T01:34:20.250Z,89.02
2023-01-29T01:35:20.240Z,89.02
2023-01-29T01:36:20.231Z,89.02
2023-01-29T01:37:20.236Z,89.02
2023-01-29T01:38:20.223Z,89.02
2023-01-29T01:39:20.195Z,89.09
2023-01-29T01:40:20.197Z,89.09
2023-01-29T01:41:20.176Z,88.98
2023-01-29T01:42:20.156Z,88.98
2023-01-29T01:43:20.167Z,88.98
2023-01-29T01:44:20.151Z,88.98
2023-01-29T01:45:20.132Z,88.92
2023-01-29T01:46:20.119Z,88.92
2023-01-29T01:47:20.115Z,88.81
2023-01-29T01:48:20.112Z,88.81
2023-01-29T01:49:20.074Z,88.77
2023-01-29T01:50:20.100Z,88.87
2023-01-29T01:51:20.065Z,88.66
2023-01-29T01:52:20.045Z,88.66
2023-01-29T01:53:20.056Z,88.66
2023-01-29T01:54:20.067Z,88.66
2023-01-29T01:55:20.024Z,88.66
2023-01-29T01:56:20.004Z,88.56
2023-01-29T01:57:20.003Z,88.56
2023-01-29T01:58:19.972Z,88.56
2023-01-29T01:59:19.985Z,88.39
2023-01-29T02:00:19.988Z,88.39
2023-01-29T02:01:19.998Z,88.28
2023-01-29T02:02:19.990Z,88.32
2023-01-29T02:03:19.944Z,88.32
2023-01-29T02:04:19.908Z,88.32
2023-01-29T02:05:19.904Z,88.32
2023-01-29T02:06:19.897Z,88.32
2023-01-29T02:07:19.911Z,88.32
2023-01-29T02:08:19.879Z,88.32
2023-01-29T02:09:19.851Z,88.32
2023-01-29T02:10:19.841Z,88.46
2023-01-29T02:11:19.856Z,88.46
2023-01-29T02:12:19.828Z,88.46
2023-01-29T02:13:19.793Z,88.57
2023-01-29T02:14:19.804Z,88.57
2023-01-29T02:15:19.792Z,88.57
2023-01-29T02:16:19.763Z,88.57
2023-01-29T02:17:19.779Z,88.64
2023-01-29T02:18:19.786Z,88.64
2023-01-29T02:19:19.727Z,88.64
2023-01-29T02:20:19.776Z,88.75
2023-01-29T02:21:19.708Z,88.75
2023-01-29T02:22:19.711Z,88.75
2023-01-29T02:23:19.711Z,88.75
2023-01-29T02:24:19.814Z,88.75
2023-01-29T02:25:19.676Z,88.75
2023-01-29T02:26:19.655Z,88.75
2023-01-29T02:27:19.657Z,88.75
2023-01-29T02:28:19.628Z,88.85
2023-01-29T02:29:19.634Z,88.75
2023-01-29T02:30:19.614Z,88.75
2023-01-29T02:31:19.748Z,88.75
2023-01-29T02:32:19.589Z,88.75
2023-01-29T02:33:19.589Z,88.75
2023-01-29T02:34:19.559Z,88.75
2023-01-29T02:35:19.552Z,88.75
2023-01-29T02:36:19.540Z,88.75
2023-01-29T02:37:19.525Z,88.75
2023-01-29T02:38:19.518Z,88.75
2023-01-29T02:39:19.517Z,88.64
2023-01-29T02:40:19.496Z,88.64
2023-01-29T02:41:19.480Z,88.64
2023-01-29T02:42:19.479Z,88.75
2023-01-29T02:43:19.474Z,88.75
2023-01-29T02:44:19.454Z,88.75
2023-01-29T02:45:19.438Z,88.75
2023-01-29T02:46:19.535Z,88.75
2023-01-29T02:47:19.426Z,88.64
2023-01-29T02:48:19.399Z,88.75
2023-01-29T02:49:19.393Z,88.75
2023-01-29T02:50:19.552Z,88.75
2023-01-29T02:51:19.382Z,88.75
2023-01-29T02:52:19.366Z,88.75
2023-01-29T02:53:19.340Z,88.75
2023-01-29T02:54:19.324Z,88.75
2023-01-29T02:55:19.349Z,88.75
2023-01-29T02:56:19.312Z,88.75
2023-01-29T02:57:19.315Z,88.75
2023-01-29T02:58:19.293Z,88.75
2023-01-29T02:59:19.272Z,88.75
2023-01-29T03:00:19.527Z,88.95
2023-01-29T03:01:19.306Z,88.81
2023-01-29T03:02:19.320Z,88.81
2023-01-29T03:03:19.264Z,88.81
2023-01-29T03:04:19.228Z,88.70
2023-01-29T03:05:19.207Z,88.64
2023-01-29T03:06:19.198Z,88.60
2023-01-29T03:07:19.188Z,88.70
2023-01-29T03:08:19.177Z,88.60
2023-01-29T03:09:19.191Z,88.60
2023-01-29T03:10:19.161Z,88.60
2023-01-29T03:11:19.145Z,88.64
2023-01-29T03:12:20.118Z,88.53
2023-01-29T03:13:19.118Z,88.49
2023-01-29T03:14:19.120Z,88.39
2023-01-29T03:15:19.105Z,88.39
2023-01-29T03:16:19.151Z,88.28
2023-01-29T03:17:19.072Z,88.28
2023-01-29T03:18:19.067Z,88.28
2023-01-29T03:19:19.062Z,88.28
2023-01-29T03:20:19.497Z,88.28
2023-01-29T03:21:19.054Z,88.28
2023-01-29T03:22:19.014Z,88.18
2023-01-29T03:23:19.009Z,88.21
2023-01-29T03:24:19.039Z,88.11
2023-01-29T03:25:19.001Z,88.11
2023-01-29T03:26:18.985Z,88.11
2023-01-29T03:27:18.956Z,88.11
2023-01-29T03:28:18.955Z,88.11
2023-01-29T03:29:18.941Z,88.11
2023-01-29T03:30:19.027Z,88.11
2023-01-29T03:31:19.044Z,88.15
2023-01-29T03:32:18.899Z,88.15
2023-01-29T03:33:18.898Z,88.15
2023-01-29T03:34:18.884Z,88.26
2023-01-29T03:35:18.864Z,88.26
2023-01-29T03:36:18.858Z,88.26
2023-01-29T03:37:18.855Z,88.36
2023-01-29T03:38:18.827Z,88.43
2023-01-29T03:39:18.863Z,88.43
2023-01-29T03:40:19.127Z,88.43
2023-01-29T03:41:18.793Z,88.43
2023-01-29T03:42:18.814Z,88.43
2023-01-29T03:43:18.777Z,88.43
2023-01-29T03:44:18.789Z,88.43
2023-01-29T03:45:18.770Z,88.43
2023-01-29T03:46:18.738Z,88.46
2023-01-29T03:47:18.731Z,88.46
2023-01-29T03:48:18.717Z,88.46
2023-01-29T03:49:18.714Z,88.46
2023-01-29T03:50:18.911Z,88.46
2023-01-29T03:51:18.715Z,88.46
2023-01-29T03:52:18.686Z,88.46
2023-01-29T03:53:18.671Z,88.57
2023-01-29T03:54:18.650Z,88.46
2023-01-29T03:55:18.634Z,88.46
2023-01-29T03:56:18.632Z,88.46
2023-01-29T03:57:18.619Z,88.57
2023-01-29T03:58:18.596Z,88.57
2023-01-29T03:59:18.588Z,88.57
2023-01-29T04:00:18.944Z,88.46
2023-01-29T04:01:18.639Z,88.46
2023-01-29T04:02:18.579Z,88.46
2023-01-29T04:03:18.535Z,88.46
2023-01-29T04:04:18.599Z,88.57
2023-01-29T04:05:18.535Z,88.53
2023-01-29T04:06:18.515Z,88.53
2023-01-29T04:07:18.501Z,88.53
2023-01-29T04:08:18.498Z,88.53
2023-01-29T04:09:18.481Z,88.53
2023-01-29T04:10:18.727Z,88.43
2023-01-29T04:11:18.471Z,88.43
2023-01-29T04:12:18.431Z,88.43
2023-01-29T04:13:18.430Z,88.32
2023-01-29T04:14:18.442Z,88.32
2023-01-29T04:15:18.412Z,88.32
2023-01-29T04:16:18.505Z,88.26
2023-01-29T04:17:18.392Z,88.26
2023-01-29T04:18:18.369Z,88.26
2023-01-29T04:19:18.370Z,88.26
2023-01-29T04:20:18.739Z,88.26
2023-01-29T04:21:18.332Z,88.26
2023-01-29T04:22:18.320Z,88.26
2023-01-29T04:23:18.303Z,88.26
2023-01-29T04:24:18.344Z,88.26
2023-01-29T04:25:18.283Z,88.36
2023-01-29T04:26:18.281Z,88.40
2023-01-29T04:27:18.280Z,88.40
2023-01-29T04:28:18.250Z,88.40
2023-01-29T04:29:18.257Z,88.51
2023-01-29T04:30:18.591Z,88.46
2023-01-29T04:31:18.313Z,88.46
2023-01-29T04:32:18.218Z,88.57
2023-01-29T04:33:18.195Z,88.57
2023-01-29T04:34:18.204Z,88.57
2023-01-29T04:35:18.173Z,88.57
2023-01-29T04:36:18.154Z,88.57
2023-01-29T04:37:18.150Z,88.57
2023-01-29T04:38:18.127Z,88.57
2023-01-29T04:39:18.129Z,88.57
2023-01-29T04:40:18.535Z,88.57
2023-01-29T04:41:18.106Z,88.57
2023-01-29T04:42:18.106Z,88.57
2023-01-29T04:43:18.080Z,88.46
2023-01-29T04:44:18.077Z,88.46
2023-01-29T04:45:18.066Z,88.46
2023-01-29T04:46:18.040Z,88.46
2023-01-29T04:47:18.099Z,88.46
2023-01-29T04:48:18.044Z,88.46
2023-01-29T04:49:18.030Z,88.46
2023-01-29T04:50:18.382Z,88.36
2023-01-29T04:51:17.982Z,88.36
2023-01-29T04:52:17.976Z,88.43
2023-01-29T04:53:17.962Z,88.43
2023-01-29T04:54:17.974Z,88.43
2023-01-29T04:55:17.937Z,88.43
2023-01-29T04:56:17.921Z,88.39
2023-01-29T04:57:17.925Z,88.28
2023-01-29T04:58:17.917Z,88.21
2023-01-29T04:59:17.885Z,88.21
2023-01-29T05:00:18.341Z,88.11
2023-01-29T05:01:18.048Z,88.01
2023-01-29T05:02:17.870Z,88.04
2023-01-29T05:03:17.855Z,88.04
2023-01-29T05:04:17.835Z,87.94
2023-01-29T05:05:17.818Z,87.94
2023-01-29T05:06:17.807Z,88.04
2023-01-29T05:07:17.806Z,87.94
2023-01-29T05:08:17.805Z,87.94
2023-01-29T05:09:17.794Z,88.04
2023-01-29T05:10:18.248Z,88.04
2023-01-29T05:11:17.760Z,88.04
2023-01-29T05:12:17.743Z,88.04
2023-01-29T05:13:17.732Z,88.15
2023-01-29T05:14:17.723Z,88.15
2023-01-29T05:15:17.721Z,88.15
2023-01-29T05:16:17.779Z,88.15
2023-01-29T05:17:17.688Z,88.15
2023-01-29T05:18:17.676Z,88.15
2023-01-29T05:19:17.676Z,88.15
2023-01-29T05:20:18.136Z,88.15
2023-01-29T05:21:17.663Z,88.15
2023-01-29T05:22:17.633Z,88.11
2023-01-29T05:23:17.646Z,88.11
2023-01-29T05:24:17.633Z,88.11
2023-01-29T05:25:17.595Z,88.11
2023-01-29T05:26:17.622Z,88.11
2023-01-29T05:27:17.623Z,88.11
2023-01-29T05:28:17.564Z,88.11
2023-01-29T05:29:17.564Z,88.11
2023-01-29T05:30:17.909Z,88.07
2023-01-29T05:31:17.693Z,88.07
2023-01-29T05:32:17.535Z,87.96
2023-01-29T05:33:17.527Z,87.96
2023-01-29T05:34:17.504Z,87.96
2023-01-29T05:35:17.477Z,87.96
2023-01-29T05:36:17.464Z,87.96
2023-01-29T05:37:17.544Z,87.93
2023-01-29T05:38:17.441Z,87.86
2023-01-29T05:39:17.438Z,87.82
2023-01-29T05:40:17.817Z,87.71
2023-01-29T05:41:17.429Z,87.71
2023-01-29T05:42:17.401Z,87.71
2023-01-29T05:43:17.400Z,87.71
2023-01-29T05:44:17.370Z,87.71
2023-01-29T05:45:17.370Z,87.71
2023-01-29T05:46:17.379Z,87.71
2023-01-29T05:47:17.339Z,87.61
2023-01-29T05:48:17.340Z,87.61
2023-01-29T05:49:17.327Z,87.50
2023-01-29T05:50:17.706Z,87.50
2023-01-29T05:51:17.320Z,87.50
2023-01-29T05:52:17.274Z,87.50
2023-01-29T05:53:17.276Z,87.50
2023-01-29T05:54:17.273Z,87.40
2023-01-29T05:55:17.262Z,87.46
2023-01-29T05:56:17.239Z,87.46
2023-01-29T05:57:17.234Z,87.46
2023-01-29T05:58:17.226Z,87.46
2023-01-29T05:59:17.235Z,87.46
2023-01-29T06:00:17.597Z,87.46
2023-01-29T06:01:17.188Z,87.46
2023-01-29T06:02:17.165Z,87.46
2023-01-29T06:03:17.226Z,87.42
2023-01-29T06:04:17.134Z,87.42
2023-01-29T06:05:17.134Z,87.42
2023-01-29T06:06:17.136Z,87.32
2023-01-29T06:07:17.117Z,87.32
2023-01-29T06:08:17.095Z,87.32
2023-01-29T06:09:17.109Z,87.32
2023-01-29T06:10:17.505Z,87.32
2023-01-29T06:11:17.085Z,87.32
2023-01-29T06:12:17.049Z,87.32
2023-01-29T06:13:17.063Z,87.21
2023-01-29T06:14:17.027Z,87.21
2023-01-29T06:15:17.019Z,87.07
2023-01-29T06:16:17.132Z,87.07
2023-01-29T06:17:17.003Z,86.96
2023-01-29T06:18:16.982Z,86.96
2023-01-29T06:19:16.960Z,86.96
2023-01-29T06:20:17.327Z,86.96
2023-01-29T06:21:19.712Z,86.86
2023-01-29T06:22:16.953Z,86.86
2023-01-29T06:23:16.930Z,86.86
2023-01-29T06:24:17.001Z,86.76
2023-01-29T06:25:16.908Z,86.71
2023-01-29T06:26:16.885Z,86.71
2023-01-29T06:27:16.879Z,86.71
2023-01-29T06:28:16.894Z,86.71
2023-01-29T06:29:16.858Z,86.61
2023-01-29T06:30:17.284Z,86.61
2023-01-29T06:31:33.109Z,86.51
2023-01-29T06:32:16.854Z,86.51
2023-01-29T06:33:16.819Z,86.36
2023-01-29T06:34:16.809Z,86.36
2023-01-29T06:35:16.793Z,86.36
2023-01-29T06:36:16.771Z,86.25
2023-01-29T06:37:16.774Z,86.25
2023-01-29T06:38:16.758Z,86.25
2023-01-29T06:39:16.747Z,86.15
2023-01-29T06:40:17.233Z,86.15
2023-01-29T06:41:16.731Z,86.04
2023-01-29T06:42:16.700Z,86.00
2023-01-29T06:43:16.692Z,85.90
2023-01-29T06:44:16.686Z,85.90
2023-01-29T06:45:16.688Z,85.79
2023-01-29T06:46:16.662Z,85.79
2023-01-29T06:47:16.639Z,85.69
2023-01-29T06:48:16.636Z,85.69
2023-01-29T06:49:16.622Z,85.58
2023-01-29T06:50:17.200Z,85.48
2023-01-29T06:51:16.609Z,85.48
2023-01-29T06:52:16.590Z,85.37
2023-01-29T06:53:16.580Z,85.37
2023-01-29T06:54:16.563Z,85.27
2023-01-29T06:55:16.549Z,85.27
2023-01-29T06:56:16.553Z,85.27
2023-01-29T06:57:16.534Z,85.13
2023-01-29T06:58:16.517Z,85.13
2023-01-29T06:59:16.504Z,85.13
2023-01-29T07:00:16.882Z,85.13
2023-01-29T07:01:33.477Z,85.13
2023-01-29T07:02:16.587Z,85.13
2023-01-29T07:03:16.455Z,85.02
2023-01-29T07:04:16.443Z,85.02
2023-01-29T07:05:16.437Z,84.91
2023-01-29T07:06:16.421Z,84.91
2023-01-29T07:07:16.409Z,84.91
2023-01-29T07:08:16.421Z,84.81
2023-01-29T07:09:16.382Z,84.81
2023-01-29T07:10:16.759Z,84.81
2023-01-29T07:11:16.364Z,84.81
2023-01-29T07:12:16.363Z,84.70
2023-01-29T07:13:16.345Z,84.67
2023-01-29T07:14:16.349Z,84.67
2023-01-29T07:15:16.318Z,84.67
2023-01-29T07:16:16.369Z,84.67
2023-01-29T07:17:16.300Z,84.56
2023-01-29T07:18:16.283Z,84.56
2023-01-29T07:19:16.286Z,84.45
2023-01-29T07:20:16.595Z,84.45
2023-01-29T07:21:16.255Z,84.45
2023-01-29T07:22:16.234Z,84.35
2023-01-29T07:23:16.248Z,84.35
2023-01-29T07:24:16.276Z,84.35
2023-01-29T07:25:16.216Z,84.35
2023-01-29T07:26:16.191Z,84.25
2023-01-29T07:27:16.176Z,84.25
2023-01-29T07:28:16.166Z,84.20
2023-01-29T07:29:16.162Z,84.20
2023-01-29T07:30:16.503Z,84.10
2023-01-29T07:31:16.239Z,84.10
2023-01-29T07:32:16.163Z,84.10
2023-01-29T07:33:16.108Z,84.10
2023-01-29T07:34:16.117Z,84.00
2023-01-29T07:35:16.111Z,84.00
2023-01-29T07:36:16.090Z,83.89
2023-01-29T07:37:16.063Z,83.89
2023-01-29T07:38:16.076Z,83.86
2023-01-29T07:39:16.052Z,83.86
2023-01-29T07:40:16.445Z,83.86
2023-01-29T07:41:16.039Z,83.75
2023-01-29T07:42:16.016Z,83.64
2023-01-29T07:43:16.006Z,83.54
2023-01-29T07:44:15.993Z,83.54
2023-01-29T07:45:15.979Z,83.44
2023-01-29T07:46:16.116Z,83.33
2023-01-29T07:47:17.274Z,83.33
2023-01-29T07:48:15.970Z,83.33
2023-01-29T07:49:15.952Z,83.33
2023-01-29T07:50:16.306Z,83.44
2023-01-29T07:51:15.914Z,83.44
2023-01-29T07:52:15.916Z,83.54
2023-01-29T07:53:15.914Z,83.54
2023-01-29T07:54:15.877Z,83.54
2023-01-29T07:55:15.868Z,83.44
2023-01-29T07:56:15.858Z,83.33
2023-01-29T07:57:15.841Z,83.33
2023-01-29T07:58:15.837Z,83.22
2023-01-29T07:59:15.830Z,83.18
2023-01-29T08:00:16.255Z,83.08
2023-01-29T08:01:15.904Z,83.08
2023-01-29T08:02:15.864Z,82.98
2023-01-29T08:03:15.780Z,82.87
2023-01-29T08:04:15.765Z,82.87
2023-01-29T08:05:15.773Z,82.87
2023-01-29T08:06:15.748Z,82.76
2023-01-29T08:07:15.754Z,82.76
2023-01-29T08:08:15.743Z,82.81
2023-01-29T08:09:15.714Z,82.76
2023-01-29T08:10:16.118Z,82.76
2023-01-29T08:11:15.695Z,82.76
2023-01-29T08:12:15.670Z,82.76
2023-01-29T08:13:15.712Z,82.81
2023-01-29T08:14:15.662Z,82.81
2023-01-29T08:15:15.640Z,82.76
2023-01-29T08:16:15.724Z,82.81
2023-01-29T08:17:15.623Z,82.81
2023-01-29T08:18:15.612Z,82.91
2023-01-29T08:19:15.592Z,82.91
2023-01-29T08:20:15.852Z,82.87
2023-01-29T08:21:15.584Z,82.87
2023-01-29T08:22:15.554Z,82.91
2023-01-29T08:23:15.553Z,82.91
2023-01-29T08:24:15.550Z,82.91
2023-01-29T08:25:15.533Z,83.01
2023-01-29T08:26:15.517Z,83.01
2023-01-29T08:27:15.503Z,82.98
2023-01-29T08:28:15.542Z,83.01
2023-01-29T08:29:15.489Z,82.98
2023-01-29T08:30:16.369Z,82.98
2023-01-29T08:31:15.511Z,82.98
2023-01-29T08:32:15.447Z,82.87
2023-01-29T08:33:17.537Z,82.76
2023-01-29T08:34:15.424Z,82.76
2023-01-29T08:35:15.411Z,82.76
2023-01-29T08:36:15.405Z,82.76
2023-01-29T08:37:15.397Z,82.87
2023-01-29T08:38:15.402Z,82.87
2023-01-29T08:39:15.395Z,82.76
2023-01-29T08:40:15.623Z,82.87
2023-01-29T08:41:15.344Z,82.87
2023-01-29T08:42:15.350Z,82.87
2023-01-29T08:43:15.346Z,82.87
2023-01-29T08:44:15.320Z,82.87
2023-01-29T08:45:15.304Z,82.87
2023-01-29T08:46:15.404Z,82.87
2023-01-29T08:47:15.278Z,82.87
2023-01-29T08:48:15.291Z,82.98
2023-01-29T08:49:15.258Z,82.98
2023-01-29T08:50:15.613Z,82.87
2023-01-29T08:51:15.246Z,82.87
2023-01-29T08:52:15.227Z,82.87
2023-01-29T08:53:15.220Z,82.87
2023-01-29T08:54:15.211Z,82.73
2023-01-29T08:55:15.614Z,82.83
2023-01-29T08:56:15.192Z,82.73
2023-01-29T08:57:15.173Z,82.73
2023-01-29T08:58:15.194Z,82.73
2023-01-29T08:59:15.157Z,82.52
2023-01-29T09:00:15.494Z,82.42
2023-01-29T09:01:15.153Z,82.42
2023-01-29T09:02:15.184Z,82.31
2023-01-29T09:03:15.095Z,82.31
2023-01-29T09:04:15.110Z,82.31
2023-01-29T09:05:15.556Z,82.31
2023-01-29T09:06:15.063Z,82.20
2023-01-29T09:07:15.047Z,82.20
2023-01-29T09:08:15.055Z,82.10
2023-01-29T09:09:15.037Z,82.10
2023-01-29T09:10:15.050Z,82.10
2023-01-29T09:11:15.019Z,81.89
2023-01-29T09:12:15.004Z,81.89
2023-01-29T09:13:14.991Z,81.99
2023-01-29T09:14:14.985Z,81.99
2023-01-29T09:15:15.629Z,81.99
2023-01-29T09:16:15.019Z,82.10
2023-01-29T09:17:14.975Z,82.10
2023-01-29T09:18:14.930Z,81.99
2023-01-29T09:19:14.923Z,81.89
2023-01-29T09:20:14.913Z,81.89
2023-01-29T09:21:14.908Z,81.89
2023-01-29T09:22:14.909Z,81.89
2023-01-29T09:23:14.975Z,81.79
2023-01-29T09:24:14.861Z,81.68
2023-01-29T09:25:15.497Z,81.68
2023-01-29T09:26:14.955Z,81.79
2023-01-29T09:27:14.839Z,81.79
2023-01-29T09:28:14.820Z,81.89
2023-01-29T09:29:14.818Z,81.79
2023-01-29T09:30:14.809Z,81.89
2023-01-29T09:31:15.066Z,81.99
2023-01-29T09:32:16.848Z,81.99
2023-01-29T09:33:14.763Z,81.99
2023-01-29T09:34:14.779Z,81.99
2023-01-29T09:35:15.083Z,82.10
2023-01-29T09:36:14.743Z,82.06
2023-01-29T09:37:14.730Z,81.96
2023-01-29T09:38:14.721Z,81.85
2023-01-29T09:39:14.703Z,81.96
2023-01-29T09:40:14.695Z,81.85
2023-01-29T09:41:14.694Z,81.75
2023-01-29T09:42:14.692Z,81.64
2023-01-29T09:43:14.669Z,81.75
2023-01-29T09:44:14.648Z,81.85
2023-01-29T09:45:14.948Z,81.85
2023-01-29T09:46:14.712Z,81.85
2023-01-29T09:47:14.623Z,81.96
2023-01-29T09:48:14.607Z,81.96
2023-01-29T09:49:14.588Z,81.82
2023-01-29T09:50:14.585Z,81.82
2023-01-29T09:51:14.567Z,81.60
2023-01-29T09:52:14.567Z,81.50
2023-01-29T09:53:14.561Z,81.40
2023-01-29T09:54:14.550Z,81.36
2023-01-29T09:55:15.116Z,81.26
2023-01-29T09:56:14.529Z,81.26
2023-01-29T09:57:14.523Z,81.15
2023-01-29T09:58:14.487Z,81.15
2023-01-29T09:59:14.492Z,81.15
2023-01-29T10:00:14.471Z,81.01
2023-01-29T10:01:14.533Z,81.01
2023-01-29T10:02:14.560Z,81.01
2023-01-29T10:03:14.446Z,80.69
2023-01-29T10:04:14.532Z,80.59
2023-01-29T10:05:14.853Z,80.69
2023-01-29T10:06:14.400Z,80.59
2023-01-29T10:07:14.404Z,80.69
2023-01-29T10:08:14.385Z,80.80
2023-01-29T10:09:14.380Z,80.90
2023-01-29T10:10:14.362Z,80.80
2023-01-29T10:11:14.339Z,80.69
2023-01-29T10:12:14.365Z,80.80
2023-01-29T10:13:14.360Z,80.80
2023-01-29T10:14:14.306Z,80.73
2023-01-29T10:15:14.594Z,80.69
2023-01-29T10:16:14.318Z,80.80
2023-01-29T10:17:14.314Z,80.90
2023-01-29T10:18:14.269Z,81.04
2023-01-29T10:19:14.303Z,81.04
2023-01-29T10:20:14.251Z,80.94
2023-01-29T10:21:14.247Z,81.04
2023-01-29T10:22:14.223Z,81.04
2023-01-29T10:23:14.216Z,81.04
2023-01-29T10:24:14.227Z,81.04
2023-01-29T10:25:14.262Z,81.15
2023-01-29T10:26:14.236Z,81.01
2023-01-29T10:27:14.171Z,81.15
2023-01-29T10:28:14.173Z,81.04
2023-01-29T10:29:14.157Z,81.15
2023-01-29T10:30:14.143Z,81.22
2023-01-29T10:31:14.242Z,81.22
2023-01-29T10:32:14.191Z,81.22
2023-01-29T10:33:14.112Z,81.12
2023-01-29T10:34:14.101Z,81.22
2023-01-29T10:35:14.435Z,81.22
2023-01-29T10:36:14.083Z,81.12
2023-01-29T10:37:14.063Z,81.12
2023-01-29T10:38:14.051Z,81.01
2023-01-29T10:39:14.044Z,81.12
2023-01-29T10:40:14.037Z,81.12
2023-01-29T10:41:14.098Z,81.07
2023-01-29T10:42:14.003Z,80.87
2023-01-29T10:43:14.004Z,80.76
2023-01-29T10:44:13.979Z,80.76
2023-01-29T10:45:14.016Z,80.66
2023-01-29T10:46:13.973Z,80.55
2023-01-29T10:47:14.000Z,80.45
2023-01-29T10:48:13.941Z,80.45
2023-01-29T10:49:13.940Z,80.41
2023-01-29T10:50:13.932Z,80.20
2023-01-29T10:51:13.900Z,80.20
2023-01-29T10:52:13.908Z,80.10
2023-01-29T10:53:13.883Z,80.31
2023-01-29T10:54:13.876Z,80.35
2023-01-29T10:55:14.264Z,80.31
2023-01-29T10:56:22.265Z,80.20
2023-01-29T10:57:13.836Z,80.20
2023-01-29T10:58:13.849Z,80.31
2023-01-29T10:59:13.817Z,80.38
2023-01-29T11:00:13.811Z,80.31
2023-01-29T11:01:13.913Z,80.20
2023-01-29T11:02:13.798Z,80.10
2023-01-29T11:03:26.333Z,79.96
2023-01-29T11:04:13.778Z,79.96
2023-01-29T11:05:13.975Z,80.06
2023-01-29T11:06:13.737Z,80.06
